Memphis, TN

7:32 PM CDT on March 27, 2017 (GMT -0500)
East Buntyn | | Change Station
Active Advisory: Severe Thunderstorm Watch

Elev 315 ft 35.12 °N, 89.95 °W | Updated 3 minutes ago

Partly Cloudy
Partly Cloudy
71.8 °F
Feels Like 74 °F
N
5.8
Wind Variable Wind from ENE

Today
High -- | Low -- °F
--% Chance of Precip.
Yesterday
High -- | Low -- °F
Precip. -- in
Pressure 29.79 in
Visibility 10.0 miles
Clouds Few 4500 ft
Scattered Clouds 25000 ft
Heat Index 74 °F
Dew Point 62 °F
Humidity 71%
Rainfall 0.00 in
Snow Depth Not available.
6:53 AM 7:17 PM
Waning Crescent, 0% visible
METAR KMEM 272354Z 26010G22KT 10SM FEW045 SCT250 26/15 A2979 RMK AO2 LTG DSNT NW SLP086 T02560150 10278 20244 53007
Pressure 29.79 in
Visibility 10.0 miles
Clouds Few 4500 ft
Scattered Clouds 25000 ft
Heat Index 74 °F
Dew Point 62 °F
Humidity 71%
Rainfall 0.00 in
Snow Depth Not available.
6:53 AM 7:17 PM
Waning Crescent, 0% visible
METAR KMEM 272354Z 26010G22KT 10SM FEW045 SCT250 26/15 A2979 RMK AO2 LTG DSNT NW SLP086 T02560150 10278 20244 53007

Get Your Daily Forecast Email!

Thanks for signing up!

Be on the lookout for a verification email in your inbox.

You'll start receiving severe weather alerts in your inbox..

×

10-Day Weather Forecast

Almanac

Astronomy

Mar. 27, 2017 Rise Set
Actual Time
Civil Twilight
Nautical Twilight
Astronomical Twilight
Moon
Length of Visible Light
Length of Day
Tomorrow will be .
, % of the Moon is Illuminated

Today's Extremes

State Highs State Lows

Community

WunderPhotos

Upload Photos

1,962,540 photos uploaded!

WunderBlog® & News

Nearby

Air Quality

  Air Quality AQ Index Pollutant
Not available.

Snow Depth

Station Depth Elevation

Earthquake Activity

City Distance Mag. Time & Date
Minimum magnitude displayed is 2.5.

Earthquake Activity

City Distance Mag. Time & Date
Minimum magnitude displayed is 2.5.

Coastal Water Temperatures

Place Temperature

Stations

Nearby Weather Stations

Station Location Temp. Windchill Dew Point Humidity Wind Precip. Elev Updated Type
                   

Watches & Warnings

Severe Thunderstorm Watch
Issued: 7:24 PM CDT Mar. 27, 2017 – National Weather Service

Severe Thunderstorm Watch 89 remains in effect until 800 PM CDT

TN
. Tennessee counties included are

Benton Carroll Chester
Crockett Decatur Dickson
Fayette Gibson Hardeman
Hardin Haywood Henderson
Henry Hickman Lauderdale
Lewis McNairy Madison
Perry Shelby Tipton
Wayne Weakley